Observation data for Reese Center on 05/26/2019      Previous  Date  Next       Current Mesonet Observations  Soil Data  Daily Summary Page  Observations in Plain Language
KREE 260500Z 17011KT 20/18 A2996 RMK A01 T02030176  RH  087%=      5-min Rain = 0
KREE 260505Z 17010KT 20/18 A2996 RMK A01 T02020176  RH  087%=      5-min Rain = 0
KREE 260510Z 17010KT 20/18 A2996 RMK A01 T02000175  RH  087%=      5-min Rain = 0
KREE 260515Z 17009KT 20/18 A2996 RMK A01 T01990175  RH  088%=      5-min Rain = 0
KREE 260520Z 17009KT 20/17 A2996 RMK A01 T01980174  RH  088%=      5-min Rain = 0
KREE 260525Z 18009KT 20/17 A2996 RMK A01 T01970173  RH  088%=      5-min Rain = 0
KREE 260530Z 18008KT 20/17 A2996 RMK A01 T01960173  RH  089%=      5-min Rain = 0
KREE 260535Z 18008KT 20/17 A2997 RMK A01 T01950172  RH  089%=      5-min Rain = 0
KREE 260540Z 18008KT 20/17 A2997 RMK A01 T01950172  RH  089%=      5-min Rain = 0
KREE 260545Z 18009KT 19/17 A2997 RMK A01 T01940172  RH  089%=      5-min Rain = 0
KREE 260550Z 18009KT 20/17 A2997 RMK A01 T01950172  RH  089%=      5-min Rain = 0
KREE 260555Z 18009KT 19/17 A2997 RMK A01 T01940171  RH  089%=      5-min Rain = 0
KREE 260600Z 18008KT 19/17 A2997 RMK A01 T01940171  RH  089%=      5-min Rain = 0
KREE 260605Z 18008KT 19/17 A2997 RMK A01 T01940171  RH  089%=      5-min Rain = 0
KREE 260610Z 18008KT 19/17 A2997 RMK A01 T01930170  RH  089%=      5-min Rain = 0
KREE 260615Z 18008KT 19/17 A2997 RMK A01 T01910170  RH  089%=      5-min Rain = 0
KREE 260620Z 18008KT 19/17 A2997 RMK A01 T01900170  RH  090%=      5-min Rain = 0
KREE 260625Z 18008KT 19/17 A2996 RMK A01 T01900169  RH  090%=      5-min Rain = 0
KREE 260630Z 18009KT 19/17 A2996 RMK A01 T01890169  RH  090%=      5-min Rain = 0
KREE 260635Z 18008KT 19/17 A2996 RMK A01 T01880169  RH  091%=      5-min Rain = 0
KREE 260640Z 18007KT 19/17 A2996 RMK A01 T01880169  RH  091%=      5-min Rain = 0
KREE 260645Z 18007KT 19/17 A2996 RMK A01 T01870168  RH  091%=      5-min Rain = 0
KREE 260650Z 18006KT 19/17 A2996 RMK A01 T01850168  RH  091%=      5-min Rain = 0
KREE 260655Z 17006KT 18/17 A2996 RMK A01 T01840167  RH  092%=      5-min Rain = 0
KREE 260700Z 17006KT 18/17 A2996 RMK A01 T01820165  RH  092%=      5-min Rain = 0
KREE 260705Z 17005KT 18/17 A2996 RMK A01 T01800165  RH  093%=      5-min Rain = 0
KREE 260710Z 16005KT 18/16 A2997 RMK A01 T01780163  RH  093%=      5-min Rain = 0
KREE 260715Z 16006KT 18/16 A2996 RMK A01 T01770164  RH  094%=      5-min Rain = 0
KREE 260720Z 16007KT 18/16 A2996 RMK A01 T01770164  RH  094%=      5-min Rain = 0
KREE 260725Z 16007KT 18/17 A2996 RMK A01 T01790166  RH  094%=      5-min Rain = 0
KREE 260730Z 16007KT 18/17 A2996 RMK A01 T01800167  RH  094%=      5-min Rain = 0
KREE 260735Z 15007KT 18/17 A2996 RMK A01 T01810167  RH  094%=      5-min Rain = 0
KREE 260740Z 15007KT 18/17 A2996 RMK A01 T01810167  RH  094%=      5-min Rain = 0
KREE 260745Z 15007KT 18/17 A2996 RMK A01 T01820168  RH  093%=      5-min Rain = 0
KREE 260750Z 15007KT 18/17 A2996 RMK A01 T01830168  RH  093%=      5-min Rain = 0
KREE 260755Z 14006KT 18/17 A2996 RMK A01 T01840168  RH  093%=      5-min Rain = 0
KREE 260800Z 13005KT 18/17 A2996 RMK A01 T01830167  RH  093%=      5-min Rain = 0
KREE 260805Z 12006KT 18/17 A2996 RMK A01 T01820167  RH  093%=      5-min Rain = 0
KREE 260810Z 12006KT 18/17 A2996 RMK A01 T01810166  RH  093%=      5-min Rain = 0
KREE 260815Z 11004KT 18/17 A2997 RMK A01 T01800165  RH  093%=      5-min Rain = 0
KREE 260820Z 10002KT 18/17 A2997 RMK A01 T01800165  RH  093%=      5-min Rain = 0
KREE 260825Z 09002KT 18/17 A2997 RMK A01 T01800166  RH  093%=      5-min Rain = 0
KREE 260830Z 10003KT 18/16 A2997 RMK A01 T01780162  RH  093%=      5-min Rain = 0
KREE 260835Z 10004KT 17/16 A2997 RMK A01 T01740160  RH  093%=      5-min Rain = 0
KREE 260840Z 11005KT 17/16 A2997 RMK A01 T01730160  RH  094%=      5-min Rain = 0
KREE 260845Z 12006KT 17/16 A2997 RMK A01 T01730161  RH  094%=      5-min Rain = 0
KREE 260850Z 13007KT 18/17 A2997 RMK A01 T01790166  RH  094%=      5-min Rain = 0
KREE 260855Z 14006KT 18/16 A2996 RMK A01 T01780164  RH  094%=      5-min Rain = 0
KREE 260900Z 14007KT 18/17 A2996 RMK A01 T01790166  RH  094%=      5-min Rain = 0
KREE 260905Z 14008KT 18/17 A2997 RMK A01 T01820169  RH  094%=      5-min Rain = 0
KREE 260910Z 14009KT 19/17 A2997 RMK A01 T01860170  RH  093%=      5-min Rain = 0
KREE 260915Z 14008KT 19/17 A2997 RMK A01 T01860168  RH  092%=      5-min Rain = 0
KREE 260920Z 13008KT 19/17 A2997 RMK A01 T01850168  RH  092%=      5-min Rain = 0
KREE 260925Z 13008KT 19/17 A2997 RMK A01 T01850168  RH  092%=      5-min Rain = 0
KREE 260930Z 13008KT 19/17 A2997 RMK A01 T01850168  RH  092%=      5-min Rain = 0
KREE 260935Z 12008KT 18/17 A2997 RMK A01 T01840167  RH  092%=      5-min Rain = 0
KREE 260940Z 13009KT 18/17 A2997 RMK A01 T01840168  RH  092%=      5-min Rain = 0
KREE 260945Z 13008KT 18/17 A2997 RMK A01 T01840167  RH  092%=      5-min Rain = 0
KREE 260950Z 13008KT 18/17 A2997 RMK A01 T01830167  RH  093%=      5-min Rain = 0
KREE 260955Z 13008KT 19/17 A2997 RMK A01 T01850169  RH  093%=      5-min Rain = 0
KREE 261000Z 13008KT 19/17 A2997 RMK A01 T01850170  RH  093%=      5-min Rain = 0
KREE 261005Z 14009KT 19/17 A2997 RMK A01 T01870171  RH  093%=      5-min Rain = 0
KREE 261010Z 15009KT 19/17 A2997 RMK A01 T01880171  RH  092%=      5-min Rain = 0
KREE 261015Z 15009KT 19/17 A2997 RMK A01 T01890173  RH  092%=      5-min Rain = 0
KREE 261020Z 15009KT 19/17 A2997 RMK A01 T01900173  RH  092%=      5-min Rain = 0
KREE 261025Z 15010KT 19/18 A2997 RMK A01 T01920175  RH  092%=      5-min Rain = 0
KREE 261030Z 15011KT 19/18 A2997 RMK A01 T01930175  RH  092%=      5-min Rain = 0
KREE 261035Z 15012KT 20/18 A2997 RMK A01 T01950177  RH  092%=      5-min Rain = 0
KREE 261040Z 15012KT 20/18 A2997 RMK A01 T01950177  RH  091%=      5-min Rain = 0
KREE 261045Z 16012KT 20/18 A2997 RMK A01 T01960178  RH  091%=      5-min Rain = 0
KREE 261050Z 15011KT 20/18 A2998 RMK A01 T01970179  RH  092%=      5-min Rain = 0
KREE 261055Z 16011KT 20/18 A2998 RMK A01 T01970179  RH  092%=      5-min Rain = 0
KREE 261100Z 16011KT 20/18 A2998 RMK A01 T01970180  RH  092%=      5-min Rain = 0
KREE 261105Z 16012KT 20/18 A2998 RMK A01 T01980180  RH  092%=      5-min Rain = 0
KREE 261110Z 16012KT 20/18 A2998 RMK A01 T01980180  RH  092%=      5-min Rain = 0
KREE 261115Z 16013KT 20/18 A2998 RMK A01 T01980181  RH  092%=      5-min Rain = 0
KREE 261120Z 16013KT 20/18 A2998 RMK A01 T01990181  RH  092%=      5-min Rain = 0
KREE 261125Z 16013KT 20/18 A2998 RMK A01 T01990181  RH  092%=      5-min Rain = 0
KREE 261130Z 16012KT 20/18 A2998 RMK A01 T01990181  RH  092%=      5-min Rain = 0
KREE 261135Z 16013KT 20/18 A2998 RMK A01 T01990182  RH  092%=      5-min Rain = 0
KREE 261140Z 16013KT 20/18 A2998 RMK A01 T01990182  RH  092%=      5-min Rain = 0
KREE 261145Z 16013KT 20/18 A2998 RMK A01 T01990182  RH  092%=      5-min Rain = 0
KREE 261150Z 16012KT 20/18 A2999 RMK A01 T01990182  RH  092%=      5-min Rain = 0
KREE 261155Z 15012KT 20/18 A2999 RMK A01 T01990182  RH  092%=      5-min Rain = 0
KREE 261200Z 15011KT 20/18 A2999 RMK A01 T01990182  RH  092%=      5-min Rain = 0
KREE 261205Z 15011KT 20/18 A2999 RMK A01 T01990182  RH  092%=      5-min Rain = 0
KREE 261210Z 15012KT 20/18 A2999 RMK A01 T01990182  RH  092%=      5-min Rain = 0
KREE 261215Z 15012KT 20/18 A2999 RMK A01 T01990182  RH  092%=      5-min Rain = 0
KREE 261220Z 15011KT 20/18 A2999 RMK A01 T01990182  RH  092%=      5-min Rain = 0
KREE 261225Z 15012KT 20/18 A2999 RMK A01 T01990182  RH  092%=      5-min Rain = 0
KREE 261230Z 15013KT 20/18 A2999 RMK A01 T01990182  RH  092%=      5-min Rain = 0
KREE 261235Z 15012KT 20/18 A2999 RMK A01 T02000182  RH  092%=      5-min Rain = 0
KREE 261240Z 15013KT 20/18 A2999 RMK A01 T02000182  RH  092%=      5-min Rain = 0
KREE 261245Z 15013KT 20/18 A2999 RMK A01 T02000182  RH  092%=      5-min Rain = 0
KREE 261250Z 15014G19KT 20/18 A2999 RMK A01 T02000182  RH  091%=      5-min Rain = 0
KREE 261255Z 15014KT 20/18 A2999 RMK A01 T02010183  RH  091%=      5-min Rain = 0
KREE 261300Z 15013KT 20/18 A2999 RMK A01 T02020182  RH  091%=      5-min Rain = 0
KREE 261305Z 15014KT 20/18 A2999 RMK A01 T02020183  RH  091%=      5-min Rain = 0
KREE 261310Z 15015G22KT 20/18 A2999 RMK A01 T02020183  RH  091%=      5-min Rain = 0
KREE 261315Z 16014KT 20/18 A2999 RMK A01 T02030183  RH  091%=      5-min Rain = 0
KREE 261320Z 15014G19KT 20/18 A2999 RMK A01 T02030183  RH  091%=      5-min Rain = 0
KREE 261325Z 15014KT 20/18 A2999 RMK A01 T02030183  RH  090%=      5-min Rain = 0
KREE 261330Z 15015KT 20/18 A2999 RMK A01 T02030183  RH  090%=      5-min Rain = 0
KREE 261335Z 15015KT 20/18 A2999 RMK A01 T02030183  RH  090%=      5-min Rain = 0
KREE 261340Z 15015G21KT 20/18 A2999 RMK A01 T02030182  RH  090%=      5-min Rain = 0
KREE 261345Z 15016G21KT 20/18 A2999 RMK A01 T02030182  RH  090%=      5-min Rain = 0
KREE 261350Z 16015G20KT 21/18 A30 RMK A01 T02050183  RH  090%=      5-min Rain = 0
KREE 261355Z 16015KT 21/18 A30 RMK A01 T02060183  RH  089%=      5-min Rain = 0
KREE 261400Z 16015KT 21/18 A30 RMK A01 T02060183  RH  089%=      5-min Rain = 0
KREE 261405Z 17014KT 21/18 A30 RMK A01 T02060183  RH  089%=      5-min Rain = 0
KREE 261410Z 17014KT 21/18 A3001 RMK A01 T02070183  RH  089%=      5-min Rain = 0
KREE 261415Z 17014KT 21/18 A3001 RMK A01 T02080183  RH  088%=      5-min Rain = 0
KREE 261420Z 17013G18KT 21/18 A3001 RMK A01 T02080183  RH  088%=      5-min Rain = 0
KREE 261425Z 17012G17KT 21/18 A3001 RMK A01 T02080184  RH  088%=      5-min Rain = 0
KREE 261430Z 17014KT 21/18 A3001 RMK A01 T02080183  RH  088%=      5-min Rain = 0
KREE 261435Z 17014KT 21/18 A3001 RMK A01 T02090183  RH  087%=      5-min Rain = 0
KREE 261440Z 17013KT 21/18 A3002 RMK A01 T02090183  RH  087%=      5-min Rain = 0
KREE 261445Z 17014KT 21/18 A3002 RMK A01 T02090183  RH  088%=      5-min Rain = 0
KREE 261450Z 17014KT 21/18 A3002 RMK A01 T02090183  RH  087%=      5-min Rain = 0
KREE 261455Z 16015KT 21/18 A3001 RMK A01 T02090183  RH  087%=      5-min Rain = 0
KREE 261500Z 17014KT 21/18 A3001 RMK A01 T02090183  RH  087%=      5-min Rain = 0
KREE 261505Z 17015KT 21/18 A3001 RMK A01 T02100183  RH  087%=      5-min Rain = 0
KREE 261510Z 17014G19KT 21/18 A3001 RMK A01 T02100183  RH  087%=      5-min Rain = 0
KREE 261515Z 16015KT 21/18 A3001 RMK A01 T02100183  RH  087%=      5-min Rain = 0
KREE 261520Z 17016KT 21/18 A3001 RMK A01 T02100183  RH  087%=      5-min Rain = 0
KREE 261525Z 17016KT 21/18 A3001 RMK A01 T02100183  RH  086%=      5-min Rain = 0
KREE 261530Z 17014G19KT 21/18 A3001 RMK A01 T02100183  RH  087%=      5-min Rain = 0
KREE 261535Z 17016KT 21/18 A3001 RMK A01 T02090183  RH  087%=      5-min Rain = 0
KREE 261540Z 17015KT 21/18 A30 RMK A01 T02100183  RH  087%=      5-min Rain = 0
KREE 261545Z 17015KT 21/18 A30 RMK A01 T02100183  RH  087%=      5-min Rain = 0
KREE 261550Z 17015KT 21/18 A30 RMK A01 T02110184  RH  087%=      5-min Rain = 0
KREE 261555Z 17015G20KT 21/18 A30 RMK A01 T02120184  RH  086%=      5-min Rain = 0
KREE 261600Z 17014KT 21/18 A30 RMK A01 T02120184  RH  086%=      5-min Rain = 0
KREE 261605Z 17014KT 21/18 A30 RMK A01 T02120184  RH  086%=      5-min Rain = 0
KREE 261610Z 17014KT 21/18 A30 RMK A01 T02130184  RH  086%=      5-min Rain = 0
KREE 261615Z 17014KT 21/19 A30 RMK A01 T02140185  RH  085%=      5-min Rain = 0
KREE 261620Z 17014KT 21/18 A30 RMK A01 T02140184  RH  085%=      5-min Rain = 0
KREE 261625Z 17015KT 22/18 A3001 RMK A01 T02150184  RH  085%=      5-min Rain = 0
KREE 261630Z 17013KT 22/19 A3001 RMK A01 T02160185  RH  085%=      5-min Rain = 0
KREE 261635Z 17011G16KT 22/19 A3001 RMK A01 T02160186  RH  085%=      5-min Rain = 0
KREE 261640Z 17012G17KT 22/19 A3001 RMK A01 T02160185  RH  085%=      5-min Rain = 0
KREE 261645Z 17014KT 22/19 A3001 RMK A01 T02170185  RH  084%=      5-min Rain = 0
KREE 261650Z 17014KT 22/18 A3001 RMK A01 T02170184  RH  084%=      5-min Rain = 0
KREE 261655Z 17015KT 22/18 A3001 RMK A01 T02180184  RH  083%=      5-min Rain = 0
KREE 261700Z 17014KT 22/19 A30 RMK A01 T02200185  RH  083%=      5-min Rain = 0
KREE 261705Z 16015KT 22/19 A30 RMK A01 T02210185  RH  082%=      5-min Rain = 0
KREE 261710Z 16016G21KT 22/19 A30 RMK A01 T02230185  RH  081%=      5-min Rain = 0
KREE 261715Z 17016G21KT 22/18 A30 RMK A01 T02240183  RH  080%=      5-min Rain = 0
KREE 261720Z 17016KT 22/18 A3001 RMK A01 T02240184  RH  080%=      5-min Rain = 0
KREE 261725Z 16015G22KT 22/18 A30 RMK A01 T02240184  RH  080%=      5-min Rain = 0
KREE 261730Z 16016KT 22/18 A30 RMK A01 T02240184  RH  080%=      5-min Rain = 0
KREE 261735Z 16015KT 22/18 A30 RMK A01 T02240184  RH  080%=      5-min Rain = 0
KREE 261740Z 16014KT 22/18 A30 RMK A01 T02240184  RH  080%=      5-min Rain = 0
KREE 261745Z 16015G20KT 22/18 A30 RMK A01 T02240183  RH  080%=      5-min Rain = 0
KREE 261750Z 16016KT 22/18 A30 RMK A01 T02240183  RH  079%=      5-min Rain = 0
KREE 261755Z 16014KT 22/18 A30 RMK A01 T02240183  RH  080%=      5-min Rain = 0
KREE 261800Z 16016KT 23/18 A30 RMK A01 T02250183  RH  079%=      5-min Rain = 0
KREE 261805Z 16015G21KT 23/18 A30 RMK A01 T02260184  RH  079%=      5-min Rain = 0
KREE 261810Z 16017KT 23/18 A30 RMK A01 T02270183  RH  078%=      5-min Rain = 0
KREE 261815Z 16018KT 23/18 A30 RMK A01 T02260181  RH  078%=      5-min Rain = 0
KREE 261820Z 16018KT 23/18 A30 RMK A01 T02270182  RH  078%=      5-min Rain = 0
KREE 261825Z 16017KT 23/18 A3001 RMK A01 T02250182  RH  079%=      5-min Rain = 0
KREE 261830Z 16016KT 22/18 A3001 RMK A01 T02240182  RH  079%=      5-min Rain = 0
KREE 261835Z 16015KT 23/18 A3001 RMK A01 T02260183  RH  078%=      5-min Rain = 0
KREE 261840Z 17015G20KT 23/18 A3001 RMK A01 T02280184  RH  078%=      5-min Rain = 0
KREE 261845Z 17015G20KT 23/18 A3001 RMK A01 T02260182  RH  078%=      5-min Rain = 0
KREE 261850Z 17015G20KT 23/18 A3001 RMK A01 T02260183  RH  079%=      5-min Rain = 0
KREE 261855Z 17015KT 23/18 A3001 RMK A01 T02260183  RH  079%=      5-min Rain = 0
KREE 261900Z 17015KT 23/18 A3001 RMK A01 T02260184  RH  079%=      5-min Rain = 0
KREE 261905Z 17016KT 23/18 A3001 RMK A01 T02260183  RH  079%=      5-min Rain = 0
KREE 261910Z 17016KT 23/18 A3001 RMK A01 T02260183  RH  078%=      5-min Rain = 0
KREE 261915Z 17015KT 23/18 A3001 RMK A01 T02270184  RH  079%=      5-min Rain = 0
KREE 261920Z 17015KT 23/19 A3001 RMK A01 T02270185  RH  079%=      5-min Rain = 0
KREE 261925Z 17015KT 23/18 A3001 RMK A01 T02270184  RH  079%=      5-min Rain = 0
KREE 261930Z 17014KT 23/19 A3001 RMK A01 T02270185  RH  079%=      5-min Rain = 0
KREE 261935Z 17016KT 23/18 A3001 RMK A01 T02260184  RH  079%=      5-min Rain = 0
KREE 261940Z 16016KT 23/18 A3001 RMK A01 T02260184  RH  080%=      5-min Rain = 0
KREE 261945Z 16014KT 23/19 A30 RMK A01 T02260185  RH  080%=      5-min Rain = 0
KREE 261950Z 16015KT 23/19 A30 RMK A01 T02260185  RH  080%=      5-min Rain = 0
KREE 261955Z 16013KT 23/19 A30 RMK A01 T02260186  RH  080%=      5-min Rain = 0
KREE 262000Z 16013KT 23/19 A2999 RMK A01 T02260187  RH  081%=      5-min Rain = 0
KREE 262005Z 16014KT 23/19 A2999 RMK A01 T02270186  RH  080%=      5-min Rain = 0
KREE 262010Z 15015KT 23/19 A2999 RMK A01 T02290187  RH  079%=      5-min Rain = 0
KREE 262015Z 16014KT 23/19 A2999 RMK A01 T02310188  RH  079%=      5-min Rain = 0
KREE 262020Z 15013KT 23/19 A2998 RMK A01 T02330189  RH  078%=      5-min Rain = 0
KREE 262025Z 14013KT 23/19 A2997 RMK A01 T02320188  RH  078%=      5-min Rain = 0
KREE 262030Z 15014G21KT 23/19 A2997 RMK A01 T02310187  RH  079%=      5-min Rain = 0
KREE 262035Z 14016KT 23/19 A2997 RMK A01 T02290186  RH  079%=      5-min Rain = 0
KREE 262040Z 15017G22KT 23/19 A2997 RMK A01 T02290186  RH  079%=      5-min Rain = 0
KREE 262045Z 15014G21KT 23/19 A2997 RMK A01 T02290188  RH  080%=      5-min Rain = 0
KREE 262050Z 15016G21KT 23/19 A2997 RMK A01 T02290187  RH  079%=      5-min Rain = 0
KREE 262055Z 15015G20KT 23/19 A2997 RMK A01 T02290188  RH  080%=      5-min Rain = 0
KREE 262100Z 15014G19KT 23/19 A2996 RMK A01 T02300188  RH  079%=      5-min Rain = 0
KREE 262105Z 16016G21KT 23/19 A2996 RMK A01 T02310188  RH  079%=      5-min Rain = 0
KREE 262110Z 15016G21KT 23/19 A2995 RMK A01 T02310187  RH  078%=      5-min Rain = 0
KREE 262115Z 14016KT 23/19 A2994 RMK A01 T02310186  RH  078%=      5-min Rain = 0
KREE 262120Z 14017KT 23/19 A2994 RMK A01 T02310186  RH  078%=      5-min Rain = 0
KREE 262125Z 15015KT 23/19 A2994 RMK A01 T02320186  RH  078%=      5-min Rain = 0
KREE 262130Z 15014KT 23/19 A2994 RMK A01 T02330188  RH  078%=      5-min Rain = 0
KREE 262135Z 15016G22KT 23/19 A2994 RMK A01 T02340187  RH  077%=      5-min Rain = 0
KREE 262140Z 14015KT 23/19 A2993 RMK A01 T02340187  RH  077%=      5-min Rain = 0
KREE 262145Z 15017G22KT 23/19 A2993 RMK A01 T02330187  RH  077%=      5-min Rain = 0
KREE 262150Z 14017G25KT 23/19 A2992 RMK A01 T02330186  RH  077%=      5-min Rain = 0
KREE 262155Z 15018G25KT 23/19 A2993 RMK A01 T02340185  RH  076%=      5-min Rain = 0
KREE 262200Z 16019KT 24/19 A2993 RMK A01 T02350186  RH  076%=      5-min Rain = 0
KREE 262205Z 16017KT 24/19 A2993 RMK A01 T02350185  RH  076%=      5-min Rain = 0
KREE 262210Z 16019G26KT 23/19 A2993 RMK A01 T02340185  RH  076%=      5-min Rain = 0
KREE 262215Z 15017G25KT 23/19 A2993 RMK A01 T02330186  RH  077%=      5-min Rain = 0
KREE 262220Z 15017G23KT 23/19 A2991 RMK A01 T02330186  RH  076%=      5-min Rain = 0
KREE 262225Z 13021G27KT 23/19 A2989 RMK A01 T02340186  RH  076%=      5-min Rain = 0
KREE 262230Z 13021G27KT 24/19 A2989 RMK A01 T02350187  RH  076%=      5-min Rain = 0
KREE 262235Z 14022G30KT 24/19 A2989 RMK A01 T02350187  RH  076%=      5-min Rain = 0
KREE 262240Z 14021G29KT 24/19 A2988 RMK A01 T02360188  RH  076%=      5-min Rain = 0
KREE 262245Z 14019G27KT 24/19 A2989 RMK A01 T02400189  RH  075%=      5-min Rain = 0
KREE 262250Z 14020G25KT 25/19 A2988 RMK A01 T02460190  RH  073%=      5-min Rain = 0
KREE 262255Z 14022G28KT 25/19 A2988 RMK A01 T02490189  RH  071%=      5-min Rain = 0
KREE 262300Z 15023G31KT 25/19 A2989 RMK A01 T02500188  RH  070%=      5-min Rain = 0
KREE 262305Z 16022G28KT 25/19 A299 RMK A01 T02490188  RH  071%=      5-min Rain = 0
KREE 262310Z 16020G25KT 25/19 A2991 RMK A01 T02480188  RH  071%=      5-min Rain = 0
KREE 262315Z 16019G26KT 25/19 A2991 RMK A01 T02450188  RH  072%=      5-min Rain = 0
KREE 262320Z 17020KT 25/19 A2992 RMK A01 T02450187  RH  072%=      5-min Rain = 0
KREE 262325Z 17019G24KT 24/19 A2992 RMK A01 T02430187  RH  073%=      5-min Rain = 0
KREE 262330Z 16020G26KT 25/19 A2991 RMK A01 T02450188  RH  072%=      5-min Rain = 0
KREE 262335Z 16020G26KT 25/19 A299 RMK A01 T02480188  RH  071%=      5-min Rain = 0
KREE 262340Z 16023KT 25/19 A299 RMK A01 T02490186  RH  070%=      5-min Rain = 0
KREE 262345Z 16024KT 25/19 A299 RMK A01 T02470186  RH  071%=      5-min Rain = 0
KREE 262350Z 16020G27KT 25/19 A299 RMK A01 T02450186  RH  072%=      5-min Rain = 0
KREE 262355Z 15020G27KT 25/19 A2989 RMK A01 T02490188  RH  071%=      5-min Rain = 0
KREE 270000Z 15020G25KT 25/19 A2989 RMK A01 T02480186  RH  071%=      5-min Rain = 0
KREE 270005Z 15020G25KT 25/19 A2988 RMK A01 T02450186  RH  072%=      5-min Rain = 0
KREE 270010Z 15020G25KT 24/19 A2988 RMK A01 T02430186  RH  072%=      5-min Rain = 0
KREE 270015Z 15019G24KT 24/19 A2988 RMK A01 T02440187  RH  072%=      5-min Rain = 0
KREE 270020Z 15019G29KT 25/19 A2988 RMK A01 T02450187  RH  072%=      5-min Rain = 0
KREE 270025Z 15021G27KT 24/19 A2988 RMK A01 T02430186  RH  072%=      5-min Rain = 0
KREE 270030Z 15019G26KT 24/19 A2987 RMK A01 T02400186  RH  073%=      5-min Rain = 0
KREE 270035Z 15022G27KT 24/18 A2987 RMK A01 T02390184  RH  073%=      5-min Rain = 0
KREE 270040Z 15022G27KT 24/18 A2986 RMK A01 T02390183  RH  072%=      5-min Rain = 0
KREE 270045Z 15022G30KT 24/18 A2986 RMK A01 T02400182  RH  072%=      5-min Rain = 0
KREE 270050Z 15022G28KT 24/18 A2986 RMK A01 T02370181  RH  073%=      5-min Rain = 0
KREE 270055Z 15020G27KT 24/18 A2986 RMK A01 T02350182  RH  074%=      5-min Rain = 0
KREE 270100Z 15021G27KT 23/18 A2986 RMK A01 T02340180  RH  073%=      5-min Rain = 0
KREE 270105Z 15021G27KT 23/18 A2986 RMK A01 T02330180  RH  074%=      5-min Rain = 0
KREE 270110Z 15021G26KT 23/18 A2986 RMK A01 T02310180  RH  075%=      5-min Rain = 0
KREE 270115Z 15022G28KT 23/18 A2985 RMK A01 T02300179  RH  075%=      5-min Rain = 0
KREE 270120Z 15021G27KT 23/18 A2985 RMK A01 T02300179  RH  075%=      5-min Rain = 0
KREE 270125Z 16020KT 23/18 A2986 RMK A01 T02290179  RH  075%=      5-min Rain = 0
KREE 270130Z 15021G28KT 23/18 A2986 RMK A01 T02280179  RH  075%=      5-min Rain = 0
KREE 270135Z 15020G25KT 23/18 A2986 RMK A01 T02270179  RH  076%=      5-min Rain = 0
KREE 270140Z 16020KT 23/18 A2986 RMK A01 T02270178  RH  076%=      5-min Rain = 0
KREE 270145Z 16018G25KT 23/18 A2985 RMK A01 T02250178  RH  077%=      5-min Rain = 0
KREE 270150Z 15020G25KT 22/18 A2985 RMK A01 T02240178  RH  077%=      5-min Rain = 0
KREE 270155Z 16020G27KT 22/18 A2986 RMK A01 T02240177  RH  077%=      5-min Rain = 0
KREE 270200Z 16019KT 22/18 A2986 RMK A01 T02240177  RH  076%=      5-min Rain = 0
KREE 270205Z 16019KT 22/18 A2987 RMK A01 T02240177  RH  077%=      5-min Rain = 0
KREE 270210Z 16016G21KT 22/18 A2987 RMK A01 T02220177  RH  078%=      5-min Rain = 0
KREE 270215Z 16017G23KT 22/18 A2987 RMK A01 T02220177  RH  078%=      5-min Rain = 0
KREE 270220Z 16016KT 22/18 A2988 RMK A01 T02210177  RH  078%=      5-min Rain = 0
KREE 270225Z 16016KT 22/18 A2988 RMK A01 T02210177  RH  078%=      5-min Rain = 0
KREE 270230Z 16017KT 22/18 A2988 RMK A01 T02200177  RH  078%=      5-min Rain = 0
KREE 270235Z 16016KT 22/18 A2988 RMK A01 T02190177  RH  079%=      5-min Rain = 0
KREE 270240Z 16016KT 22/18 A2988 RMK A01 T02190177  RH  079%=      5-min Rain = 0
KREE 270245Z 16016KT 22/18 A2989 RMK A01 T02190177  RH  079%=      5-min Rain = 0
KREE 270250Z 16016KT 22/18 A2989 RMK A01 T02190177  RH  079%=      5-min Rain = 0
KREE 270255Z 15016G22KT 22/18 A2989 RMK A01 T02190176  RH  079%=      5-min Rain = 0
KREE 270300Z 15016KT 22/18 A2989 RMK A01 T02170176  RH  079%=      5-min Rain = 0
KREE 270305Z 15016KT 22/18 A2988 RMK A01 T02170176  RH  079%=      5-min Rain = 0
KREE 270310Z 15015KT 22/18 A2989 RMK A01 T02170175  RH  079%=      5-min Rain = 0
KREE 270315Z 16015KT 22/18 A2989 RMK A01 T02170175  RH  079%=      5-min Rain = 0
KREE 270320Z 16016KT 22/18 A2988 RMK A01 T02160175  RH  079%=      5-min Rain = 0
KREE 270325Z 16016KT 21/17 A2988 RMK A01 T02140174  RH  080%=      5-min Rain = 0
KREE 270330Z 15016G21KT 21/17 A2988 RMK A01 T02140174  RH  080%=      5-min Rain = 0
KREE 270335Z 15016KT 21/17 A2988 RMK A01 T02140174  RH  080%=      5-min Rain = 0
KREE 270340Z 15016KT 21/17 A2988 RMK A01 T02130173  RH  080%=      5-min Rain = 0
KREE 270345Z 15016KT 21/17 A2988 RMK A01 T02120173  RH  080%=      5-min Rain = 0
KREE 270350Z 16017KT 21/17 A2988 RMK A01 T02130173  RH  080%=      5-min Rain = 0
KREE 270355Z 16015KT 21/17 A2988 RMK A01 T02120173  RH  080%=      5-min Rain = 0
KREE 270400Z 16015G20KT 21/17 A2988 RMK A01 T02120173  RH  080%=      5-min Rain = 0
KREE 270405Z 16014KT 21/17 A2988 RMK A01 T02120173  RH  080%=      5-min Rain = 0
KREE 270410Z 16013KT 21/17 A2988 RMK A01 T02110173  RH  081%=      5-min Rain = 0
KREE 270415Z 16014G19KT 21/17 A2988 RMK A01 T02090172  RH  081%=      5-min Rain = 0
KREE 270420Z 16013KT 21/17 A2989 RMK A01 T02090172  RH  081%=      5-min Rain = 0
KREE 270425Z 16013KT 21/17 A2989 RMK A01 T02090172  RH  081%=      5-min Rain = 0
KREE 270430Z 16013KT 21/17 A2989 RMK A01 T02080172  RH  082%=      5-min Rain = 0
KREE 270435Z 16013KT 21/17 A2989 RMK A01 T02080172  RH  082%=      5-min Rain = 0
KREE 270440Z 16013KT 21/17 A2989 RMK A01 T02070172  RH  082%=      5-min Rain = 0
KREE 270445Z 17011KT 21/17 A2989 RMK A01 T02060172  RH  083%=      5-min Rain = 0
KREE 270450Z 18009KT 21/17 A299 RMK A01 T02050171  RH  083%=      5-min Rain = 0
KREE 270455Z 17010KT 20/17 A299 RMK A01 T02040171  RH  083%=      5-min Rain = 0

Page generated in 0.009 seconds.